createdAt,value
2018-11-14T00:00:33.034Z,3.75
2018-11-14T00:03:02.936Z,4.58
2018-11-14T00:05:33.059Z,5.60
2018-11-14T00:08:01.736Z,4.45
2018-11-14T00:10:30.237Z,4.50
2018-11-14T00:12:58.855Z,5.90
2018-11-14T00:15:28.193Z,4.25
2018-11-14T00:17:56.887Z,5.47
2018-11-14T00:20:25.602Z,3.52
2018-11-14T00:22:56.134Z,3.92
2018-11-14T00:25:24.762Z,3.30
2018-11-14T00:27:53.373Z,4.80
2018-11-14T00:30:24.180Z,4.05
2018-11-14T00:32:52.813Z,4.20
2018-11-14T00:35:21.381Z,5.00
2018-11-14T00:37:50.326Z,3.50
2018-11-14T00:40:19.526Z,5.22
2018-11-14T00:42:48.991Z,4.40
2018-11-14T00:45:19.033Z,5.15
2018-11-14T00:47:50.042Z,3.67
2018-11-14T00:50:19.194Z,3.83
2018-11-14T00:52:48.388Z,3.70
2018-11-14T00:55:20.877Z,3.08
2018-11-14T00:57:51.529Z,4.10
2018-11-14T01:00:24.180Z,4.60
2018-11-14T01:02:54.950Z,3.12
2018-11-14T01:05:23.578Z,3.65
2018-11-14T01:07:52.100Z,3.65
2018-11-14T01:10:21.705Z,4.08
2018-11-14T01:12:51.452Z,4.62
2018-11-14T01:15:21.413Z,2.95
2018-11-14T01:17:50.193Z,4.50
2018-11-14T01:20:20.105Z,3.30
2018-11-14T01:22:50.071Z,2.92
2018-11-14T01:25:19.023Z,4.45
2018-11-14T01:27:49.883Z,3.17
2018-11-14T01:30:23.212Z,3.37
2018-11-14T01:32:52.437Z,3.10
2018-11-14T01:35:21.107Z,2.65
2018-11-14T01:37:50.557Z,3.00
2018-11-14T01:40:20.842Z,3.25
2018-11-14T01:42:50.885Z,3.37
2018-11-14T01:45:20.932Z,3.95
2018-11-14T01:47:50.517Z,4.12
2018-11-14T01:50:19.104Z,3.87
2018-11-14T01:52:48.342Z,4.65
2018-11-14T01:55:18.510Z,4.87
2018-11-14T01:57:47.519Z,3.77
2018-11-14T02:00:22.610Z,3.02
2018-11-14T02:02:53.375Z,4.67
2018-11-14T02:05:22.013Z,2.75
2018-11-14T02:07:51.296Z,3.77
2018-11-14T02:10:20.821Z,4.05
2018-11-14T02:12:50.193Z,2.95
2018-11-14T02:15:22.929Z,4.47
2018-11-14T02:17:53.025Z,3.37
2018-11-14T02:20:21.600Z,3.22
2018-11-14T02:22:50.009Z,3.35
2018-11-14T02:25:18.568Z,3.90
2018-11-14T02:27:48.339Z,3.42
2018-11-14T02:30:18.453Z,4.17
2018-11-14T02:32:47.790Z,3.22
2018-11-14T02:35:17.661Z,3.00
2018-11-14T02:37:46.345Z,3.80
2018-11-14T02:40:16.907Z,2.45
2018-11-14T02:42:45.604Z,2.83
2018-11-14T02:45:14.360Z,3.92
2018-11-14T02:47:43.481Z,3.87
2018-11-14T02:50:12.968Z,3.27
2018-11-14T02:52:42.446Z,2.75
2018-11-14T02:55:12.135Z,3.02
2018-11-14T02:57:42.083Z,2.55
2018-11-14T03:00:11.547Z,3.55
2018-11-14T03:02:40.134Z,4.20
2018-11-14T03:05:08.988Z,3.87
2018-11-14T03:07:37.563Z,3.33
2018-11-14T03:10:07.832Z,2.95
2018-11-14T03:12:36.562Z,5.92
2018-11-14T03:15:07.272Z,4.10
2018-11-14T03:17:36.539Z,3.08
2018-11-14T03:20:05.614Z,3.52
2018-11-14T03:22:34.085Z,4.37
2018-11-14T03:25:02.648Z,3.77
2018-11-14T03:27:31.137Z,3.58
2018-11-14T03:29:59.894Z,3.40
2018-11-14T03:32:28.534Z,5.40
2018-11-14T03:34:57.335Z,6.75
2018-11-14T03:37:25.767Z,4.45
2018-11-14T03:39:54.350Z,2.92
2018-11-14T03:42:23.431Z,3.83
2018-11-14T03:44:53.063Z,3.70
2018-11-14T03:47:21.649Z,4.40
2018-11-14T03:49:51.468Z,3.67
2018-11-14T03:52:19.902Z,3.45
2018-11-14T03:54:48.446Z,3.60
2018-11-14T03:57:17.601Z,4.92
2018-11-14T03:59:46.195Z,3.00
2018-11-14T04:02:14.941Z,3.65
2018-11-14T04:04:43.698Z,5.87
2018-11-14T04:07:14.278Z,6.75
2018-11-14T04:09:43.857Z,3.65
2018-11-14T04:12:12.252Z,4.22
2018-11-14T04:14:41.278Z,4.03
2018-11-14T04:17:11.038Z,3.77
2018-11-14T04:19:39.773Z,3.50
2018-11-14T04:22:08.429Z,5.12
2018-11-14T04:24:36.992Z,5.08
2018-11-14T04:27:05.712Z,4.20
2018-11-14T04:29:35.080Z,3.25
2018-11-14T04:32:04.994Z,4.70
2018-11-14T04:34:33.619Z,4.05
2018-11-14T04:37:03.043Z,4.78
2018-11-14T04:39:31.520Z,4.25
2018-11-14T04:42:01.286Z,4.58
2018-11-14T04:44:29.853Z,4.33
2018-11-14T04:46:58.400Z,5.70
2018-11-14T04:49:28.646Z,3.98
2018-11-14T04:51:57.058Z,4.08
2018-11-14T04:54:26.686Z,4.75
2018-11-14T04:56:56.116Z,4.47
2018-11-14T04:59:24.882Z,5.45
2018-11-14T05:01:53.354Z,3.40
2018-11-14T05:04:23.273Z,4.20
2018-11-14T05:06:52.925Z,3.98
2018-11-14T05:09:21.685Z,5.50
2018-11-14T05:11:50.793Z,6.50
2018-11-14T05:14:19.893Z,4.15
2018-11-14T05:16:48.363Z,4.53
2018-11-14T05:19:18.234Z,3.35
2018-11-14T05:21:46.977Z,3.33
2018-11-14T05:24:17.072Z,3.35
2018-11-14T05:26:46.159Z,4.08
2018-11-14T05:29:14.736Z,3.55
2018-11-14T05:31:43.405Z,4.08
2018-11-14T05:34:11.953Z,4.47
2018-11-14T05:36:42.192Z,3.72
2018-11-14T05:39:12.021Z,4.87
2018-11-14T05:41:40.598Z,4.37
2018-11-14T05:44:09.327Z,5.20
2018-11-14T05:46:37.833Z,4.62
2018-11-14T05:49:06.854Z,5.67
2018-11-14T05:51:35.378Z,5.17
2018-11-14T05:54:04.038Z,5.58
2018-11-14T05:56:32.599Z,5.45
2018-11-14T05:59:01.092Z,5.03
2018-11-14T06:01:29.700Z,5.72
2018-11-14T06:03:58.367Z,5.87
2018-11-14T06:06:26.947Z,4.22
2018-11-14T06:08:56.705Z,4.30
2018-11-14T06:11:27.166Z,5.15
2018-11-14T06:13:56.738Z,5.47
2018-11-14T06:16:25.399Z,5.87
2018-11-14T06:18:55.378Z,5.47
2018-11-14T06:21:24.516Z,4.42
2018-11-14T06:24:06.668Z,5.20
2018-11-14T06:26:36.150Z,6.47
2018-11-14T06:29:04.862Z,7.03
2018-11-14T06:31:33.470Z,4.20
2018-11-14T06:34:02.594Z,9.43
2018-11-14T06:36:31.243Z,6.58
2018-11-14T06:39:00.722Z,7.53
2018-11-14T06:41:29.269Z,9.20
2018-11-14T06:43:57.794Z,7.17
2018-11-14T06:46:27.627Z,7.33
2018-11-14T06:48:56.105Z,7.15
2018-11-14T06:51:25.525Z,6.95
2018-11-14T06:53:54.827Z,7.60
2018-11-14T06:56:25.117Z,7.17
2018-11-14T06:58:53.661Z,6.50
2018-11-14T07:01:22.255Z,8.73
2018-11-14T07:03:50.907Z,7.40
2018-11-14T07:06:19.452Z,6.60
2018-11-14T07:08:48.099Z,8.95
2018-11-14T07:11:16.926Z,8.53
2018-11-14T07:13:45.505Z,3.90
2018-11-14T07:16:13.973Z,6.03
2018-11-14T07:18:43.227Z,8.53
2018-11-14T07:21:11.862Z,6.22
2018-11-14T07:23:40.387Z,6.90
2018-11-14T07:26:09.644Z,9.55
2018-11-14T07:28:38.948Z,6.62
2018-11-14T07:31:08.327Z,7.72
2018-11-14T07:33:38.397Z,7.22
2018-11-14T07:36:06.865Z,8.90
2018-11-14T07:38:37.792Z,9.70
2018-11-14T07:41:07.292Z,9.50
2018-11-14T07:43:36.850Z,12.78
2018-11-14T07:46:07.885Z,7.87
2018-11-14T07:48:36.743Z,6.53
2018-11-14T07:51:05.371Z,7.47
2018-11-14T07:53:34.607Z,11.00
2018-11-14T07:56:04.784Z,10.40
2018-11-14T07:58:33.920Z,9.80
2018-11-14T08:01:02.862Z,7.58
2018-11-14T08:03:31.474Z,9.70
2018-11-14T08:06:00.599Z,8.85
2018-11-14T08:08:30.768Z,12.40
2018-11-14T08:11:00.262Z,7.33
2018-11-14T08:13:30.651Z,10.68
2018-11-14T08:16:00.404Z,8.28
2018-11-14T08:18:29.323Z,9.65
2018-11-14T08:21:00.541Z,10.25
2018-11-14T08:23:29.147Z,7.72
2018-11-14T08:25:58.820Z,8.88
2018-11-14T08:28:27.854Z,10.90
2018-11-14T08:30:56.438Z,7.20
2018-11-14T08:33:25.461Z,8.38
2018-11-14T08:35:55.162Z,6.85
2018-11-14T08:38:24.128Z,9.18
2018-11-14T08:40:55.571Z,9.93
2018-11-14T08:43:25.243Z,6.37
2018-11-14T08:45:55.098Z,10.00
2018-11-14T08:48:25.119Z,4.92
2018-11-14T08:50:55.256Z,6.65
2018-11-14T08:53:24.139Z,5.70
2018-11-14T08:55:52.596Z,5.83
2018-11-14T08:58:22.479Z,10.03
2018-11-14T09:00:51.079Z,5.85
2018-11-14T09:03:20.643Z,6.85
2018-11-14T09:05:49.455Z,5.80
2018-11-14T09:08:18.619Z,5.20
2018-11-14T09:10:47.349Z,6.40
2018-11-14T09:13:17.302Z,7.83
2018-11-14T09:15:46.117Z,4.65
2018-11-14T09:18:15.482Z,7.62
2018-11-14T09:20:44.122Z,4.83
2018-11-14T09:23:13.404Z,5.10
2018-11-14T09:25:43.415Z,6.05
2018-11-14T09:28:11.976Z,6.12
2018-11-14T09:30:40.606Z,4.97
2018-11-14T09:33:09.477Z,6.10
2018-11-14T09:35:39.383Z,4.75
2018-11-14T09:38:10.129Z,4.50
2018-11-14T09:40:39.014Z,7.90
2018-11-14T09:43:07.653Z,8.60
2018-11-14T09:45:36.732Z,7.42
2018-11-14T09:48:06.207Z,5.75
2018-11-14T09:50:35.956Z,7.80
2018-11-14T09:53:06.271Z,6.95
2018-11-14T09:55:34.934Z,5.33
2018-11-14T09:58:03.654Z,6.05
2018-11-14T10:00:34.719Z,7.35
2018-11-14T10:03:05.703Z,8.00
2018-11-14T10:05:34.828Z,6.10
2018-11-14T10:08:04.454Z,7.78
2018-11-14T10:10:33.134Z,6.17
2018-11-14T10:13:02.567Z,8.78
2018-11-14T10:15:32.114Z,5.83
2018-11-14T10:18:02.318Z,7.85
2018-11-14T10:20:31.223Z,9.15
2018-11-14T10:22:59.959Z,7.62
2018-11-14T10:25:29.373Z,9.08
2018-11-14T10:27:58.251Z,7.97
2018-11-14T10:30:28.160Z,6.33
2018-11-14T10:32:57.789Z,7.00
2018-11-14T10:35:26.893Z,5.92
2018-11-14T10:37:55.624Z,7.58
2018-11-14T10:40:25.734Z,8.45
2018-11-14T10:42:55.569Z,9.45
2018-11-14T10:45:25.342Z,6.58
2018-11-14T10:47:54.681Z,4.42
2018-11-14T10:50:25.574Z,8.40
2018-11-14T10:52:55.271Z,9.73
2018-11-14T10:56:54.154Z,7.30
2018-11-14T10:59:23.063Z,7.15
2018-11-14T11:01:58.081Z,9.28
2018-11-14T11:04:33.033Z,6.12
2018-11-14T11:07:07.704Z,7.12
2018-11-14T11:09:42.334Z,7.25
2018-11-14T11:12:16.883Z,6.15
2018-11-14T11:14:51.932Z,8.95
2018-11-14T11:17:21.443Z,5.30
2018-11-14T11:19:50.239Z,5.37
2018-11-14T11:22:19.745Z,6.58
2018-11-14T11:24:48.749Z,4.42
2018-11-14T11:27:17.783Z,9.00
2018-11-14T11:29:47.316Z,45.78
2018-11-14T11:32:15.924Z,80.22
2018-11-14T11:34:44.685Z,41.68
2018-11-14T11:37:14.575Z,44.85
2018-11-14T11:39:43.154Z,40.65
2018-11-14T11:42:11.568Z,34.38
2018-11-14T11:44:41.166Z,36.93
2018-11-14T11:47:11.631Z,33.38
2018-11-14T11:49:41.330Z,25.72
2018-11-14T11:52:10.244Z,18.80
2018-11-14T11:54:39.587Z,19.90
2018-11-14T11:57:09.322Z,13.88
2018-11-14T11:59:38.358Z,11.25
2018-11-14T12:02:07.810Z,13.85
2018-11-14T12:04:37.409Z,43.95
2018-11-14T12:07:06.482Z,158.03
2018-11-14T12:09:35.711Z,90.90
2018-11-14T12:12:04.544Z,175.78
2018-11-14T12:14:33.684Z,149.42
2018-11-14T12:17:02.560Z,135.18
2018-11-14T12:19:31.662Z,157.70
2018-11-14T12:22:00.499Z,138.32
2018-11-14T12:24:29.397Z,131.65
2018-11-14T12:26:58.229Z,105.97
2018-11-14T12:29:27.090Z,109.37
2018-11-14T12:31:56.052Z,96.22
2018-11-14T12:34:25.286Z,102.35
2018-11-14T12:36:54.569Z,96.32
2018-11-14T12:39:23.846Z,99.62
2018-11-14T12:41:53.416Z,104.38
2018-11-14T12:44:22.155Z,96.78
2018-11-14T12:46:51.066Z,89.70
2018-11-14T12:49:21.440Z,86.02
2018-11-14T12:51:50.512Z,78.22
2018-11-14T12:54:19.480Z,74.70
2018-11-14T12:56:49.955Z,72.95
2018-11-14T12:59:18.783Z,73.00
2018-11-14T13:01:47.990Z,72.87
2018-11-14T13:04:17.056Z,63.33
2018-11-14T13:06:46.260Z,57.80
2018-11-14T13:09:15.722Z,58.80
2018-11-14T13:11:44.997Z,53.58
2018-11-14T13:14:13.828Z,46.02
2018-11-14T13:16:42.869Z,47.85
2018-11-14T13:19:11.546Z,46.73
2018-11-14T13:21:40.787Z,40.95
2018-11-14T13:24:10.153Z,42.55
2018-11-14T13:26:39.673Z,34.98
2018-11-14T13:29:08.439Z,40.03
2018-11-14T13:31:37.312Z,47.70
2018-11-14T13:34:06.389Z,56.88
2018-11-14T13:36:34.948Z,66.45
2018-11-14T13:39:04.603Z,70.50
2018-11-14T13:41:33.555Z,71.92
2018-11-14T13:44:02.449Z,71.40
2018-11-14T13:46:31.449Z,69.40
2018-11-14T13:49:02.662Z,70.03
2018-11-14T13:51:31.434Z,65.35
2018-11-14T13:54:01.568Z,62.40
2018-11-14T13:56:31.684Z,56.53
2018-11-14T13:59:00.547Z,50.80
2018-11-14T14:01:29.771Z,38.02
2018-11-14T14:03:58.755Z,38.40
2018-11-14T14:06:28.320Z,37.13
2018-11-14T14:08:56.997Z,71.28
2018-11-14T14:11:26.060Z,92.85
2018-11-14T14:14:00.161Z,93.92
2018-11-14T14:16:29.204Z,161.57
2018-11-14T14:18:58.548Z,290.82
2018-11-14T14:21:27.472Z,232.40
2018-11-14T14:23:56.503Z,194.85
2018-11-14T14:26:25.514Z,148.90
2018-11-14T14:28:54.942Z,133.60
2018-11-14T14:31:24.158Z,121.25
2018-11-14T14:33:53.169Z,117.45
2018-11-14T14:36:22.352Z,110.45
2018-11-14T14:38:51.301Z,94.58
2018-11-14T14:41:20.431Z,86.50
2018-11-14T14:43:49.894Z,76.45
2018-11-14T14:46:21.995Z,65.10
2018-11-14T14:48:51.342Z,54.35
2018-11-14T14:51:20.293Z,50.43
2018-11-14T14:53:49.599Z,48.83
2018-11-14T14:56:19.040Z,42.53
2018-11-14T14:58:48.370Z,36.17
2018-11-14T15:01:18.291Z,34.45
2018-11-14T15:03:48.465Z,32.20
2018-11-14T15:06:17.397Z,26.95
2018-11-14T15:08:46.895Z,25.82
2018-11-14T15:11:16.220Z,23.80
2018-11-14T15:13:45.544Z,23.67
2018-11-14T15:16:14.700Z,23.35
2018-11-14T15:18:43.987Z,24.92
2018-11-14T15:21:13.347Z,28.55
2018-11-14T15:23:42.393Z,25.97
2018-11-14T15:26:11.372Z,24.98
2018-11-14T15:28:40.370Z,26.82
2018-11-14T15:31:09.867Z,20.55
2018-11-14T15:33:39.470Z,20.43
2018-11-14T15:36:09.329Z,19.07
2018-11-14T15:38:38.898Z,22.22
2018-11-14T15:41:08.387Z,15.75
2018-11-14T15:43:37.842Z,20.05
2018-11-14T15:46:07.826Z,15.93
2018-11-14T15:48:37.026Z,18.15
2018-11-14T15:51:06.202Z,18.20
2018-11-14T15:53:35.847Z,15.43
2018-11-14T15:56:05.198Z,15.28
2018-11-14T15:58:34.666Z,17.05
2018-11-14T16:01:03.533Z,23.05
2018-11-14T16:03:32.709Z,22.62
2018-11-14T16:06:02.301Z,28.80
2018-11-14T16:08:31.644Z,24.07
2018-11-14T16:11:01.360Z,22.65
2018-11-14T16:13:30.758Z,24.00
2018-11-14T16:16:00.206Z,27.75
2018-11-14T16:18:29.426Z,27.32
2018-11-14T16:20:58.855Z,36.55
2018-11-14T16:23:28.270Z,36.73
2018-11-14T16:25:57.857Z,38.73
2018-11-14T16:28:26.802Z,39.70
2018-11-14T16:30:55.645Z,53.90
2018-11-14T16:33:25.134Z,48.15
2018-11-14T16:35:54.470Z,46.65
2018-11-14T16:38:24.166Z,48.40
2018-11-14T16:40:53.947Z,58.80
2018-11-14T16:43:22.847Z,62.00
2018-11-14T16:45:51.672Z,65.20
2018-11-14T16:48:20.852Z,74.65
2018-11-14T16:50:49.489Z,78.55
2018-11-14T16:53:18.071Z,67.60
2018-11-14T16:55:46.988Z,66.62
2018-11-14T16:58:15.675Z,60.55
2018-11-14T17:00:44.319Z,58.80
2018-11-14T17:03:13.130Z,51.37
2018-11-14T17:05:42.071Z,63.55
2018-11-14T17:08:11.885Z,77.87
2018-11-14T17:10:41.098Z,86.78
2018-11-14T17:13:10.816Z,102.62
2018-11-14T17:15:39.935Z,103.15
2018-11-14T17:18:08.829Z,122.58
2018-11-14T17:20:37.471Z,126.35
2018-11-14T17:23:06.073Z,131.82
2018-11-14T17:25:35.054Z,135.78
2018-11-14T17:28:03.997Z,153.07
2018-11-14T17:30:32.798Z,182.45
2018-11-14T17:33:02.466Z,191.10
2018-11-14T17:35:31.268Z,193.50
2018-11-14T17:38:00.054Z,182.35
2018-11-14T17:40:29.211Z,163.75
2018-11-14T17:42:57.946Z,160.20
2018-11-14T17:45:27.811Z,151.85
2018-11-14T17:47:56.650Z,165.45
2018-11-14T17:50:26.785Z,151.50
2018-11-14T17:52:56.059Z,135.15
2018-11-14T17:55:25.369Z,129.25
2018-11-14T17:57:54.198Z,133.55
2018-11-14T18:00:24.250Z,133.30
2018-11-14T18:02:53.223Z,117.05
2018-11-14T18:05:23.826Z,126.47
2018-11-14T18:07:53.292Z,151.95
2018-11-14T18:10:24.663Z,153.78
2018-11-14T18:12:54.314Z,164.50
2018-11-14T18:15:23.385Z,150.47
2018-11-14T18:17:52.749Z,141.20
2018-11-14T18:20:24.853Z,129.20
2018-11-14T18:22:54.548Z,123.18
2018-11-14T18:25:23.440Z,113.50
2018-11-14T18:27:52.655Z,118.93
2018-11-14T18:30:26.276Z,128.02
2018-11-14T18:32:56.014Z,121.40
2018-11-14T18:35:25.504Z,130.10
2018-11-14T18:37:55.269Z,123.13
2018-11-14T18:40:27.366Z,123.00
2018-11-14T18:42:57.279Z,109.78
2018-11-14T18:45:29.009Z,113.88
2018-11-14T18:47:58.609Z,108.42
2018-11-14T18:50:27.751Z,117.00
2018-11-14T18:52:56.811Z,119.75
2018-11-14T18:55:27.322Z,121.05
2018-11-14T18:57:57.043Z,112.20
2018-11-14T19:00:28.205Z,107.87
2018-11-14T19:02:57.536Z,105.10
2018-11-14T19:05:26.693Z,111.97
2018-11-14T19:07:56.758Z,117.45
2018-11-14T19:10:29.503Z,116.10
2018-11-14T19:12:58.803Z,111.92
2018-11-14T19:15:29.019Z,109.52
2018-11-14T19:17:57.964Z,109.65
2018-11-14T19:20:28.043Z,125.02
2018-11-14T19:22:58.043Z,127.55
2018-11-14T19:25:28.736Z,121.33
2018-11-14T19:27:58.030Z,123.20
2018-11-14T19:30:28.108Z,103.32
2018-11-14T19:32:57.446Z,121.53
2018-11-14T19:35:26.493Z,118.77
2018-11-14T19:37:56.618Z,113.28
2018-11-14T19:40:33.121Z,115.85
2018-11-14T19:43:06.712Z,115.47
2018-11-14T19:45:36.795Z,112.75
2018-11-14T19:48:05.776Z,115.85
2018-11-14T19:50:34.696Z,117.33
2018-11-14T19:53:05.067Z,111.68
2018-11-14T19:55:35.148Z,103.62
2018-11-14T19:58:05.781Z,111.65
2018-11-14T20:00:35.665Z,98.70
2018-11-14T20:03:04.542Z,95.67
2018-11-14T20:05:33.639Z,98.55
2018-11-14T20:08:02.392Z,92.97
2018-11-14T20:10:32.308Z,86.53
2018-11-14T20:13:01.050Z,84.80
2018-11-14T20:15:31.331Z,80.65
2018-11-14T20:18:00.360Z,79.05
2018-11-14T20:20:31.350Z,87.50
2018-11-14T20:23:00.014Z,81.45
2018-11-14T20:25:28.769Z,75.85
2018-11-14T20:27:57.982Z,76.57
2018-11-14T20:30:29.004Z,77.27
2018-11-14T20:32:58.966Z,73.72
2018-11-14T20:35:29.012Z,73.78
2018-11-14T20:37:58.281Z,84.07
2018-11-14T20:40:27.246Z,81.35
2018-11-14T20:42:56.277Z,79.20
2018-11-14T20:45:27.358Z,82.50
2018-11-14T20:47:56.401Z,75.37
2018-11-14T20:50:26.105Z,79.22
2018-11-14T20:52:56.151Z,73.60
2018-11-14T20:55:24.797Z,70.62
2018-11-14T20:57:53.759Z,71.47
2018-11-14T21:00:25.435Z,66.95
2018-11-14T21:02:54.515Z,59.70
2018-11-14T21:05:23.937Z,58.85
2018-11-14T21:07:53.548Z,59.48
2018-11-14T21:10:23.630Z,57.00
2018-11-14T21:12:53.375Z,57.83
2018-11-14T21:15:23.421Z,56.90
2018-11-14T21:17:52.789Z,60.90
2018-11-14T21:20:22.491Z,58.25
2018-11-14T21:22:51.595Z,54.08
2018-11-14T21:25:21.133Z,57.83
2018-11-14T21:27:50.491Z,60.05
2018-11-14T21:30:20.462Z,56.88
2018-11-14T21:32:50.811Z,54.00
2018-11-14T21:35:24.398Z,54.38
2018-11-14T21:37:54.264Z,52.60
2018-11-14T21:40:22.850Z,54.48
2018-11-14T21:42:51.386Z,52.88
2018-11-14T21:45:22.952Z,52.17
2018-11-14T21:47:57.024Z,50.25
2018-11-14T21:50:26.512Z,50.28
2018-11-14T21:52:55.036Z,47.93
2018-11-14T21:55:23.622Z,54.05
2018-11-14T21:57:54.284Z,54.48
2018-11-14T22:00:25.210Z,53.75
2018-11-14T22:02:56.067Z,58.17
2018-11-14T22:05:25.305Z,55.60
2018-11-14T22:07:54.668Z,52.75
2018-11-14T22:10:24.502Z,55.38
2018-11-14T22:12:54.872Z,54.83
2018-11-14T22:15:24.481Z,57.53
2018-11-14T22:17:53.263Z,54.58
2018-11-14T22:20:23.237Z,55.00
2018-11-14T22:22:52.176Z,54.67
2018-11-14T22:25:23.400Z,56.60
2018-11-14T22:27:52.273Z,56.65
2018-11-14T22:30:22.730Z,54.80
2018-11-14T22:32:52.642Z,55.38
2018-11-14T22:35:23.046Z,54.55
2018-11-14T22:37:51.880Z,58.42
2018-11-14T22:40:23.239Z,58.92
2018-11-14T22:42:51.980Z,53.10
2018-11-14T22:45:23.029Z,56.60
2018-11-14T22:47:53.048Z,53.50
2018-11-14T22:50:23.789Z,52.50
2018-11-14T22:52:53.577Z,54.80
2018-11-14T22:55:24.416Z,51.53
2018-11-14T22:57:54.374Z,51.18
2018-11-14T23:00:26.435Z,48.63
2018-11-14T23:02:56.413Z,49.15
2018-11-14T23:05:26.338Z,50.23
2018-11-14T23:07:56.391Z,46.00
2018-11-14T23:10:26.490Z,50.50
2018-11-14T23:12:55.420Z,53.00
2018-11-14T23:15:24.876Z,47.38
2018-11-14T23:17:54.539Z,46.65
2018-11-14T23:20:23.126Z,48.75
2018-11-14T23:22:52.709Z,45.12
2018-11-14T23:25:23.180Z,53.10
2018-11-14T23:27:54.111Z,52.00
2018-11-14T23:30:24.010Z,50.00
2018-11-14T23:32:53.455Z,49.55
2018-11-14T23:35:24.073Z,47.50
2018-11-14T23:37:54.314Z,47.53
2018-11-14T23:40:23.888Z,51.02
2018-11-14T23:42:52.528Z,49.80
2018-11-14T23:45:22.139Z,50.80
2018-11-14T23:47:51.693Z,49.10
2018-11-14T23:50:22.476Z,49.98
2018-11-14T23:52:53.407Z,48.50
2018-11-14T23:55:22.776Z,46.58
2018-11-14T23:57:52.175Z,50.90
